Time;durP1;ratioP1;P1;durP2;ratioP2;P2;SDS_P1;SDS_P2;PMS_P1;PMS_P2;Temp;Humidity;BMP_temperature;BMP_pressure;BME280_temperature;BME280_humidity;BME280_pressure;Samples;Min_cycle;Max_cycle;Signal;HPM_P1;HPM_P2
2023/01/10 05:22:43;;;;;;;3.30;1.10;;;;;;;5.01;100.00;100659.78;5089044;28;20323;-69
2023/01/10 05:25:09;;;;;;;4.65;1.90;;;;;;;5.05;100.00;100655.09;5088962;28;20097;-69
2023/01/10 05:27:34;;;;;;;3.35;1.20;;;;;;;5.07;100.00;100651.34;5088586;28;20046;-69
2023/01/10 05:29:59;;;;;;;2.70;0.93;;;;;;;5.08;100.00;100655.66;5087573;28;20428;-68
2023/01/10 05:32:28;;;;;;;2.15;1.17;;;;;;;5.15;100.00;100661.25;5088773;28;20146;-68
2023/01/10 05:34:53;;;;;;;2.97;0.88;;;;;;;5.18;100.00;100663.66;5119989;22;20114;-69
2023/01/10 05:37:19;;;;;;;5.38;1.10;;;;;;;5.16;100.00;100661.16;5108920;28;20052;-69
2023/01/10 05:39:44;;;;;;;4.85;1.48;;;;;;;5.16;100.00;100655.88;5107990;28;20043;-69
2023/01/10 05:42:09;;;;;;;1.38;1.10;;;;;;;5.20;100.00;100667.00;5109449;28;20460;-69
2023/01/10 05:44:35;;;;;;;1.75;0.98;;;;;;;5.23;100.00;100665.94;5109435;28;20028;-69
2023/01/10 05:47:00;;;;;;;6.30;1.45;;;;;;;5.24;100.00;100667.59;5109022;28;20040;-68
2023/01/10 05:49:25;;;;;;;5.95;1.52;;;;;;;5.23;100.00;100664.13;5108860;28;20036;-69
2023/01/10 05:51:51;;;;;;;2.38;1.00;;;;;;;5.26;100.00;100665.66;5109472;28;20047;-70
2023/01/10 05:54:16;;;;;;;3.50;1.20;;;;;;;5.27;100.00;100668.16;5108875;28;20028;-69
2023/01/10 05:56:42;;;;;;;1.90;1.20;;;;;;;5.26;100.00;100674.41;5108918;28;20399;-69
2023/01/10 05:59:07;;;;;;;3.55;1.55;;;;;;;5.24;100.00;100680.81;5108477;28;20062;-69
2023/01/10 06:01:33;;;;;;;5.78;1.55;;;;;;;5.26;100.00;100681.50;5108615;28;20492;-68
2023/01/10 06:03:59;;;;;;;6.60;1.20;;;;;;;5.26;100.00;100697.34;5108641;28;20039;-69
2023/01/10 06:06:25;;;;;;;4.65;1.35;;;;;;;5.27;100.00;100688.47;5108634;28;20076;-69
2023/01/10 06:08:50;;;;;;;9.13;1.58;;;;;;;5.26;100.00;100692.06;5108608;28;20066;-69
2023/01/10 06:11:15;;;;;;;1.27;0.75;;;;;;;5.26;100.00;100703.47;5108752;28;20077;-68
2023/01/10 06:13:41;;;;;;;1.30;1.00;;;;;;;5.28;100.00;100701.56;5090172;28;20035;-68
2023/01/10 06:16:06;;;;;;;2.40;1.33;;;;;;;5.31;100.00;100701.28;5108410;28;20105;-69
2023/01/10 06:18:32;;;;;;;3.00;0.98;;;;;;;5.33;100.00;100699.34;5108049;28;20035;-69
2023/01/10 06:20:57;;;;;;;3.45;1.50;;;;;;;5.24;100.00;100689.56;5090173;28;20389;-68
2023/01/10 06:23:23;;;;;;;5.57;1.38;;;;;;;5.33;100.00;100711.72;5108214;28;20047;-68
2023/01/10 06:25:48;;;;;;;3.28;1.50;;;;;;;5.33;100.00;100709.09;5108329;28;20040;-68
2023/01/10 06:28:14;;;;;;;1.90;1.27;;;;;;;5.33;100.00;100714.38;5108011;28;20043;-68
2023/01/10 06:30:42;;;;;;;3.97;2.08;;;;;;;5.32;100.00;100725.91;5089933;28;20036;-69
2023/01/10 06:33:08;;;;;;;8.43;1.48;;;;;;;5.31;100.00;100721.59;5099762;28;20545;-69
2023/01/10 06:35:35;;;;;;;2.05;1.50;;;;;;;5.33;100.00;100724.94;5094543;28;20036;-68
2023/01/10 06:38:00;;;;;;;2.05;1.15;;;;;;;5.32;100.00;100731.19;5094212;28;20047;-69
2023/01/10 06:40:26;;;;;;;5.97;1.30;;;;;;;5.32;100.00;100737.31;5094535;28;20036;-69
2023/01/10 06:42:52;;;;;;;6.55;3.00;;;;;;;5.35;100.00;100752.91;5076349;28;20044;-68
2023/01/10 06:45:17;;;;;;;4.97;1.73;;;;;;;5.36;100.00;100759.88;5094345;28;20047;-68
2023/01/10 06:47:42;;;;;;;5.80;1.48;;;;;;;5.32;100.00;100766.38;5094033;28;20511;-69
2023/01/10 06:50:09;;;;;;;2.95;1.45;;;;;;;5.33;100.00;100772.47;5094446;28;20048;-69
2023/01/10 06:52:34;;;;;;;7.30;1.35;;;;;;;5.38;100.00;100783.50;5094131;28;20122;-68
2023/01/10 06:54:59;;;;;;;4.45;1.60;;;;;;;5.35;100.00;100779.34;5094162;28;20441;-68
2023/01/10 06:57:27;;;;;;;5.88;1.45;;;;;;;5.39;100.00;100779.91;5093834;28;20381;-70
2023/01/10 06:59:52;;;;;;;2.17;1.40;;;;;;;5.37;100.00;100766.00;5093628;28;20046;-67
2023/01/10 07:02:18;;;;;;;7.90;2.42;;;;;;;5.39;100.00;100766.69;5092621;28;20040;-69
2023/01/10 07:04:43;;;;;;;8.32;1.98;;;;;;;5.37;100.00;100763.34;5093788;28;20038;-70
2023/01/10 07:07:09;;;;;;;15.82;2.17;;;;;;;5.36;100.00;100766.97;5093660;28;20138;-69
2023/01/10 07:09:34;;;;;;;4.47;2.10;;;;;;;5.33;100.00;100773.31;5075651;28;20071;-68
2023/01/10 07:11:59;;;;;;;3.38;1.98;;;;;;;5.29;100.00;100784.28;5093862;28;20039;-68
2023/01/10 07:14:25;;;;;;;11.18;2.42;;;;;;;5.26;100.00;100792.44;5093548;28;20039;-68
2023/01/10 07:16:50;;;;;;;7.88;2.42;;;;;;;5.24;100.00;100811.06;5092400;28;20042;-68
2023/01/10 07:19:17;;;;;;;3.35;1.77;;;;;;;5.25;100.00;100811.91;5075340;28;20048;-68
2023/01/10 07:21:42;;;;;;;9.30;2.13;;;;;;;5.21;100.00;100795.44;5093562;28;20036;-63
2023/01/10 07:24:08;;;;;;;6.78;1.80;;;;;;;5.28;100.00;100807.22;5093471;28;20047;-63
2023/01/10 07:26:34;;;;;;;13.25;2.17;;;;;;;5.26;100.00;100832.91;5093493;28;20040;-63
2023/01/10 07:29:00;;;;;;;3.60;1.67;;;;;;;5.26;100.00;100829.44;5093208;28;20055;-72
2023/01/10 07:31:25;;;;;;;13.70;1.90;;;;;;;5.26;100.00;100832.06;5093311;28;20036;-72
2023/01/10 07:33:51;;;;;;;6.82;1.73;;;;;;;5.33;100.00;100826.16;5093147;28;20051;-73
2023/01/10 07:36:17;;;;;;;14.57;2.83;;;;;;;5.35;100.00;100818.97;5093340;28;20114;-73
2023/01/10 07:38:42;;;;;;;5.15;2.05;;;;;;;5.35;100.00;100826.06;5093012;28;20044;-72
2023/01/10 07:41:08;;;;;;;8.73;2.30;;;;;;;5.36;100.00;100833.84;5093373;28;20039;-73
2023/01/10 07:43:33;;;;;;;5.93;2.30;;;;;;;5.33;100.00;100825.31;5074898;28;20051;-73
2023/01/10 07:46:01;;;;;;;16.40;3.72;;;;;;;5.36;100.00;100836.50;5074250;28;20130;-73
2023/01/10 07:48:27;;;;;;;4.32;2.40;;;;;;;5.32;100.00;100844.78;5092867;28;20036;-73
2023/01/10 07:50:57;;;;;;;4.00;1.88;;;;;;;5.32;100.00;100847.44;5092989;28;20040;-72
2023/01/10 07:53:24;;;;;;;5.55;2.20;;;;;;;5.35;100.00;100847.19;5092898;28;20089;-73
2023/01/10 07:55:49;;;;;;;7.18;2.47;;;;;;;5.35;100.00;100847.19;5092934;28;20047;-72
2023/01/10 07:58:15;;;;;;;5.15;2.53;;;;;;;5.37;100.00;100847.91;5093271;28;20071;-73
2023/01/10 08:00:40;;;;;;;3.83;1.90;;;;;;;5.34;100.00;100848.13;5092846;28;20130;-72
2023/01/10 08:03:06;;;;;;;15.57;2.45;;;;;;;5.41;100.00;100849.31;5074470;28;20046;-73
2023/01/10 08:05:31;;;;;;;8.18;2.33;;;;;;;5.42;100.00;100845.72;5092751;28;20097;-73
2023/01/10 08:08:06;;;;;;;3.42;2.28;;;;;;;5.47;100.00;100867.31;5092358;28;20039;-72
2023/01/10 08:10:33;;;;;;;10.30;2.50;;;;;;;5.52;100.00;100865.13;5092624;28;20040;-72
2023/01/10 08:12:58;;;;;;;4.47;2.45;;;;;;;5.58;100.00;100869.06;5092609;28;20043;-72
2023/01/10 08:15:24;;;;;;;8.18;1.90;;;;;;;5.62;100.00;100870.50;5091748;28;20154;-72
2023/01/10 08:17:49;;;;;;;8.15;2.17;;;;;;;5.67;100.00;100871.81;5092227;28;20081;-72
2023/01/10 08:20:15;;;;;;;10.50;2.85;;;;;;;5.66;100.00;100872.75;5074182;28;20112;-72
2023/01/10 08:22:41;;;;;;;8.45;2.22;;;;;;;5.64;100.00;100874.69;5073914;28;20040;-73
2023/01/10 08:25:07;;;;;;;10.85;2.45;;;;;;;5.64;100.00;100877.34;5092285;28;20028;-72
2023/01/10 08:27:32;;;;;;;3.90;2.30;;;;;;;5.66;100.00;100885.97;5092097;28;20043;-72
2023/01/10 08:29:58;;;;;;;5.45;2.35;;;;;;;5.68;100.00;100883.22;5074033;28;20044;-73
2023/01/10 08:32:23;;;;;;;9.63;2.53;;;;;;;5.70;100.00;100891.88;5074038;28;20036;-73
2023/01/10 08:34:49;;;;;;;8.05;2.55;;;;;;;5.75;100.00;100881.75;5092130;28;20032;-71
2023/01/10 08:37:14;;;;;;;8.35;2.40;;;;;;;5.75;100.00;100891.50;5091901;28;20455;-73
2023/01/10 08:39:40;;;;;;;8.18;2.08;;;;;;;5.76;100.00;100890.53;5092166;28;20500;-71
2023/01/10 08:42:05;;;;;;;7.35;2.20;;;;;;;5.82;100.00;100890.84;5092091;28;20059;-72
2023/01/10 08:44:31;;;;;;;2.88;1.65;;;;;;;5.86;100.00;100900.19;5091994;28;20054;-71
2023/01/10 08:46:56;;;;;;;6.15;2.30;;;;;;;5.87;100.00;100898.41;5091803;28;20085;-73
2023/01/10 08:49:22;;;;;;;6.13;2.13;;;;;;;5.88;100.00;100905.38;5090650;28;20032;-72
2023/01/10 08:51:48;;;;;;;3.55;2.03;;;;;;;5.87;100.00;100906.34;5091804;28;20043;-71
2023/01/10 08:54:14;;;;;;;6.20;2.42;;;;;;;5.87;100.00;100909.81;5091938;28;20043;-72
2023/01/10 08:56:39;;;;;;;4.20;2.28;;;;;;;5.94;100.00;100910.19;5091731;28;20058;-72
2023/01/10 08:59:05;;;;;;;5.97;2.25;;;;;;;5.94;100.00;100908.38;5091506;28;20043;-72
2023/01/10 09:01:31;;;;;;;4.53;1.98;;;;;;;5.92;100.00;100907.66;5091774;28;20044;-71
2023/01/10 09:03:56;;;;;;;5.97;2.53;;;;;;;5.92;100.00;100902.38;5091752;28;20039;-72
2023/01/10 09:06:23;;;;;;;8.88;2.63;;;;;;;5.95;100.00;100896.00;5073609;28;20054;-72
2023/01/10 09:08:48;;;;;;;5.15;1.73;;;;;;;5.94;100.00;100902.25;5090263;28;20043;-72
2023/01/10 09:11:14;;;;;;;10.30;2.70;;;;;;;5.97;100.00;100908.13;5091636;28;20040;-73
2023/01/10 09:13:41;;;;;;;5.18;2.35;;;;;;;5.91;100.00;100889.28;5091498;28;20032;-72
2023/01/10 09:16:07;;;;;;;5.40;1.48;;;;;;;6.01;100.00;100908.72;5091629;28;20080;-72
2023/01/10 09:18:33;;;;;;;4.03;1.73;;;;;;;6.02;100.00;100918.31;5091251;28;20073;-73
2023/01/10 09:20:58;;;;;;;2.38;1.90;;;;;;;5.97;100.00;100913.41;5091643;28;20510;-72
2023/01/10 09:23:24;;;;;;;6.55;1.13;;;;;;;6.02;100.00;100922.78;5091487;28;20067;-72
2023/01/10 09:25:52;;;;;;;4.03;1.60;;;;;;;6.07;100.00;100920.59;5091817;28;20068;-72
2023/01/10 09:28:20;;;;;;;4.85;2.10;;;;;;;6.03;100.00;100927.09;5091444;28;20032;-73
2023/01/10 09:30:45;;;;;;;19.42;2.35;;;;;;;6.08;100.00;100938.97;5092044;28;20032;-72
2023/01/10 09:33:11;;;;;;;4.57;1.98;;;;;;;6.15;100.00;100944.59;5091493;28;20032;-72
2023/01/10 09:35:39;;;;;;;8.57;1.80;;;;;;;6.22;100.00;100943.94;5091429;28;20036;-72
2023/01/10 09:38:08;;;;;;;5.75;1.65;;;;;;;6.27;99.91;100943.56;5091481;28;20125;-72
2023/01/10 09:40:52;;;;;;;2.80;1.50;;;;;;;6.31;99.98;100950.25;5073417;28;20504;-73
2023/01/10 09:43:32;;;;;;;2.00;1.23;;;;;;;6.30;98.73;100955.69;5073408;28;20100;-73
2023/01/10 09:46:08;;;;;;;3.92;1.80;;;;;;;6.33;98.23;100963.38;5091368;28;20481;-73
2023/01/10 09:48:50;;;;;;;2.45;1.33;;;;;;;6.44;99.24;100964.16;5091085;28;20084;-73
2023/01/10 09:51:39;;;;;;;5.43;1.67;;;;;;;6.59;97.30;100959.38;5073313;28;20074;-73
2023/01/10 09:54:11;;;;;;;3.03;2.03;;;;;;;6.61;96.08;100967.19;5091226;28;20050;-73
2023/01/10 09:56:37;;;;;;;8.55;1.75;;;;;;;6.73;95.10;100968.78;5091205;28;20071;-73
2023/01/10 09:59:04;;;;;;;2.78;1.58;;;;;;;6.61;95.91;100975.97;5090885;28;20044;-73
2023/01/10 10:01:36;;;;;;;5.03;1.75;;;;;;;6.76;95.08;100977.31;5091194;28;20024;-72
2023/01/10 10:04:15;;;;;;;4.65;1.73;;;;;;;6.73;94.83;100979.38;5090868;28;20040;-72
2023/01/10 10:06:40;;;;;;;2.97;1.35;;;;;;;6.74;94.38;100971.31;5091093;28;20112;-72
2023/01/10 10:09:13;;;;;;;2.65;1.40;;;;;;;6.72;93.27;100972.41;5093817;28;20077;-73
2023/01/10 10:11:44;;;;;;;3.80;1.30;;;;;;;6.74;94.14;100973.13;5094701;28;20126;-73
2023/01/10 10:14:28;;;;;;;5.53;1.58;;;;;;;6.75;93.88;100970.34;5094623;28;20044;-73
2023/01/10 10:17:11;;;;;;;4.22;1.10;;;;;;;6.72;92.63;100973.25;5094610;28;20032;-73
2023/01/10 10:20:11;;;;;;;11.25;2.40;;;;;;;6.74;92.69;100970.47;5095125;28;20036;-73
2023/01/10 10:22:57;;;;;;;2.17;1.92;;;;;;;6.71;93.20;100974.19;5094570;28;20040;-73
2023/01/10 10:25:32;;;;;;;3.65;1.52;;;;;;;6.73;94.42;100976.75;5094989;28;20082;-73
2023/01/10 10:28:18;;;;;;;4.05;1.80;;;;;;;6.68;93.42;100974.47;5094265;28;20043;-72
2023/01/10 10:31:02;;;;;;;3.83;1.93;;;;;;;6.76;94.34;100979.13;5094396;28;20043;-73
2023/01/10 10:33:42;;;;;;;6.25;1.17;;;;;;;6.75;94.59;100969.50;5076168;28;20274;-73
2023/01/10 10:36:10;;;;;;;1.15;1.05;;;;;;;6.82;93.66;100970.66;5094428;28;20040;-73
2023/01/10 10:38:41;;;;;;;3.22;1.70;;;;;;;6.90;93.43;100976.13;5094109;28;20035;-73
2023/01/10 10:41:16;;;;;;;3.95;1.38;;;;;;;6.92;92.21;100974.19;5094362;28;20032;-73
2023/01/10 10:43:45;;;;;;;6.10;1.85;;;;;;;7.07;91.48;100972.88;5094095;28;20044;-73
2023/01/10 10:46:14;;;;;;;10.55;2.42;;;;;;;7.07;91.82;100975.50;5094233;28;20107;-73
2023/01/10 10:48:55;;;;;;;4.50;1.58;;;;;;;7.17;92.18;100980.00;5093878;28;20060;-73
2023/01/10 10:51:44;;;;;;;5.25;1.50;;;;;;;7.26;90.83;100984.50;5094112;28;20108;-72
2023/01/10 10:54:13;;;;;;;4.88;1.92;;;;;;;7.39;92.16;100984.28;5094216;28;20043;-72
2023/01/10 10:56:39;;;;;;;2.55;1.25;;;;;;;7.46;88.69;100980.13;5094106;28;20082;-72
2023/01/10 10:59:05;;;;;;;2.78;1.63;;;;;;;7.60;89.61;100963.81;5092502;28;20032;-72
2023/01/10 11:01:31;;;;;;;9.02;1.45;;;;;;;7.59;88.19;100980.72;5094000;28;20104;-72
2023/01/10 11:04:04;;;;;;;2.08;1.17;;;;;;;7.61;88.19;100971.63;5075674;28;20040;-72
2023/01/10 11:06:31;;;;;;;7.20;1.52;;;;;;;7.78;88.09;100966.66;5093833;28;20032;-72
2023/01/10 11:09:00;;;;;;;2.65;1.30;;;;;;;7.93;86.11;100970.56;5093429;28;20127;-73
2023/01/10 11:11:37;;;;;;;6.85;1.80;;;;;;;8.10;86.77;100975.19;5075497;28;20036;-73
2023/01/10 11:14:06;;;;;;;8.93;2.47;;;;;;;8.59;84.30;100961.88;5093510;28;20040;-73
2023/01/10 11:16:35;;;;;;;2.97;1.55;;;;;;;9.12;79.55;100969.28;5093779;28;20112;-73
2023/01/10 11:19:21;;;;;;;4.72;1.52;;;;;;;9.05;77.96;100970.84;5092970;28;20096;-71
2023/01/10 11:21:55;;;;;;;6.22;1.23;;;;;;;9.32;77.60;100962.06;5093564;28;20067;-71
2023/01/10 11:24:33;;;;;;;9.60;2.15;;;;;;;9.40;72.71;100957.69;5093157;28;20123;-71
2023/01/10 11:27:03;;;;;;;5.05;1.83;;;;;;;9.07;73.92;100952.94;5093490;28;20489;-71
2023/01/10 11:29:37;;;;;;;5.32;1.30;;;;;;;8.87;76.26;100954.84;5093237;28;20047;-71
2023/01/10 11:32:13;;;;;;;11.68;2.42;;;;;;;8.84;76.99;100948.00;5093426;28;20044;-72
2023/01/10 11:34:41;;;;;;;6.30;1.98;;;;;;;9.18;76.41;100960.72;5093692;28;20472;-73
2023/01/10 11:37:15;;;;;;;3.17;1.45;;;;;;;9.57;75.63;100948.06;5075276;28;20040;-74
2023/01/10 11:39:41;;;;;;;2.75;1.30;;;;;;;9.42;74.01;100957.53;5093278;28;20059;-73
2023/01/10 11:42:28;;;;;;;3.97;1.58;;;;;;;9.46;72.48;100958.91;5075126;28;20434;-74
2023/01/10 11:45:14;;;;;;;2.83;1.20;;;;;;;9.60;72.57;100941.63;5093145;28;20493;-73
2023/01/10 11:47:43;;;;;;;2.72;1.17;;;;;;;10.01;71.41;100950.81;5081901;28;20059;-73
2023/01/10 11:50:10;;;;;;;1.67;1.27;;;;;;;10.04;69.01;100950.50;5092963;28;20038;-74
2023/01/10 11:52:43;;;;;;;4.07;1.23;;;;;;;10.58;68.47;100957.50;5092932;28;20039;-73
2023/01/10 11:55:09;;;;;;;6.18;1.38;;;;;;;10.50;65.60;100949.44;5092830;28;20089;-74
2023/01/10 11:57:36;;;;;;;2.97;1.27;;;;;;;10.45;64.82;100946.41;5092703;28;20074;-73
2023/01/10 12:00:06;;;;;;;6.55;1.60;;;;;;;10.63;65.67;100935.72;5092373;28;20036;-74
2023/01/10 12:02:43;;;;;;;4.18;1.10;;;;;;;10.86;65.75;100931.50;5092851;28;20032;-74
2023/01/10 12:05:18;;;;;;;4.63;2.22;;;;;;;10.80;64.26;100926.81;5092749;28;20040;-73
2023/01/10 12:08:06;;;;;;;8.30;2.13;;;;;;;11.15;62.95;100925.00;5092495;28;20063;-74
2023/01/10 12:10:33;;;;;;;5.45;1.27;;;;;;;11.03;62.15;100927.09;5092752;28;20046;-74
2023/01/10 12:13:12;;;;;;;4.63;1.05;;;;;;;11.12;63.53;100920.78;5092405;28;20074;-74
2023/01/10 12:15:38;;;;;;;5.65;1.30;;;;;;;11.39;61.06;100908.22;5092773;28;20063;-73
2023/01/10 12:18:05;;;;;;;5.05;1.73;;;;;;;11.53;60.74;100912.91;5092222;28;20055;-75
2023/01/10 12:20:35;;;;;;;6.97;2.28;;;;;;;11.93;59.17;100898.00;5092492;28;20085;-75
2023/01/10 12:23:12;;;;;;;8.38;1.75;;;;;;;12.38;59.68;100883.28;5092411;28;20036;-74
2023/01/10 12:25:40;;;;;;;2.85;1.95;;;;;;;12.33;56.85;100873.13;5066242;28;20118;-73
2023/01/10 12:28:20;;;;;;;3.85;1.73;;;;;;;11.99;58.77;100875.13;5082723;28;20077;-73
2023/01/10 12:30:51;;;;;;;2.78;1.30;;;;;;;11.84;57.66;100877.66;5064084;28;20123;-74
2023/01/10 12:33:38;;;;;;;4.88;1.17;;;;;;;11.47;57.37;100883.41;5082003;28;20030;-74
2023/01/10 12:36:25;;;;;;;7.30;0.88;;;;;;;11.31;58.62;100890.38;5082755;28;20124;-74
2023/01/10 12:39:18;;;;;;;2.13;1.45;;;;;;;10.98;57.78;100886.75;5080890;28;20090;-72
2023/01/10 12:44:44;;;;;;;2.83;0.80;;;;;;;11.02;59.11;100890.78;5082097;28;20037;-73
2023/01/10 12:47:21;;;;;;;3.92;1.05;;;;;;;10.80;59.76;100884.16;5080670;28;20032;-72
2023/01/10 12:49:49;;;;;;;4.85;1.73;;;;;;;10.87;58.13;100881.69;5080546;28;20043;-72
2023/01/10 12:52:23;;;;;;;4.95;1.17;;;;;;;10.69;59.25;100875.59;5081405;28;20028;-73
2023/01/10 12:54:51;;;;;;;5.30;1.55;;;;;;;10.81;58.57;100874.34;5063178;28;20036;-73
2023/01/10 12:57:52;;;;;;;3.42;1.42;;;;;;;10.81;59.74;100866.34;5063360;28;20069;-72
2023/01/10 13:00:55;;;;;;;3.30;1.45;;;;;;;10.84;57.63;100866.88;5065592;28;20477;-72
2023/01/10 13:03:23;;;;;;;5.22;1.10;;;;;;;10.21;58.41;100867.13;5055703;28;20048;-72
2023/01/10 13:05:50;;;;;;;1.20;0.93;;;;;;;9.96;58.42;100865.28;5080608;28;20028;-73
2023/01/10 13:08:20;;;;;;;1.47;1.03;;;;;;;9.86;59.26;100861.88;5080890;28;20032;-72
2023/01/10 13:10:49;;;;;;;1.77;0.82;;;;;;;9.96;59.88;100867.94;5082204;28;20282;-72
2023/01/10 13:13:21;;;;;;;2.15;1.33;;;;;;;10.16;60.53;100864.09;5083962;28;20512;-73
2023/01/10 13:15:53;;;;;;;1.73;0.70;;;;;;;10.11;60.14;100869.06;5091829;28;20043;-71
2023/01/10 13:18:24;;;;;;;1.38;1.02;;;;;;;9.95;59.25;100860.94;5091412;28;20101;-71
2023/01/10 13:21:03;;;;;;;3.65;1.52;;;;;;;9.88;58.99;100859.91;5091694;28;20496;-72
2023/01/10 13:23:32;;;;;;;5.10;1.65;;;;;;;9.84;59.54;100855.84;5091661;28;20040;-73
2023/01/10 13:26:03;;;;;;;4.72;0.68;;;;;;;9.77;59.87;100853.81;5091647;28;20416;-72
2023/01/10 13:28:31;;;;;;;3.50;0.90;;;;;;;9.59;61.21;100853.00;5073430;28;20400;-72
2023/01/10 13:31:03;;;;;;;4.97;1.38;;;;;;;9.49;61.42;100858.38;5091598;28;20109;-72
2023/01/10 13:33:49;;;;;;;5.15;1.52;;;;;;;9.62;62.29;100851.84;5072156;28;20540;-72
2023/01/10 13:36:22;;;;;;;5.15;1.05;;;;;;;9.48;63.26;100858.53;5071308;28;20033;-72
2023/01/10 13:38:50;;;;;;;2.88;0.90;;;;;;;9.41;61.99;100854.81;5071119;28;20115;-71
2023/01/10 13:44:12;;;;;;;1.50;0.57;;;;;;;9.32;60.90;100851.22;5033317;28;20057;-72
2023/01/10 13:46:49;;;;;;;1.92;0.90;;;;;;;9.39;61.83;100862.94;5075237;28;20048;-72
2023/01/10 13:49:25;;;;;;;1.73;0.80;;;;;;;9.31;61.49;100860.19;5075064;28;20044;-72
2023/01/10 13:52:19;;;;;;;1.70;0.65;;;;;;;9.19;58.63;100862.25;5075034;28;20033;-72
2023/01/10 13:54:56;;;;;;;1.58;0.70;;;;;;;9.04;60.50;100857.56;5075041;28;20029;-72
2023/01/10 13:57:54;;;;;;;1.75;0.80;;;;;;;9.00;60.53;100859.69;5074652;28;20032;-72
2023/01/10 14:03:27;;;;;;;1.13;0.63;;;;;;;8.74;60.97;100864.00;5082197;28;20064;-72
2023/01/10 14:05:53;;;;;;;2.92;1.33;;;;;;;8.58;61.58;100864.63;5086355;28;20067;-73
2023/01/10 14:08:21;;;;;;;1.95;0.88;;;;;;;8.48;62.03;100863.84;5083266;28;20024;-70
2023/01/10 14:10:46;;;;;;;;;;;;;;;8.49;63.66;100866.34;5089596;28;20069;-70
2023/01/10 14:13:21;;;;;;;1.85;0.65;;;;;;;8.48;64.83;100854.03;5094995;28;19991;-73
2023/01/10 14:15:47;;;;;;;1.50;0.60;;;;;;;8.36;65.04;100850.72;5091805;28;20047;-73
2023/01/10 14:18:19;;;;;;;2.38;1.17;;;;;;;8.40;64.65;100846.78;5085138;28;20392;-70
2023/01/10 14:20:56;;;;;;;1.77;1.05;;;;;;;8.35;66.35;100830.47;5094400;28;20043;-71
2023/01/10 14:23:29;;;;;;;4.13;1.30;;;;;;;8.41;67.13;100837.84;5080716;28;20045;-70
2023/01/10 14:25:56;;;;;;;1.60;0.80;;;;;;;8.31;66.81;100834.34;5074643;28;20033;-70
2023/01/10 14:28:25;;;;;;;3.88;1.10;;;;;;;8.27;67.67;100838.25;5074059;28;20046;-71
2023/01/10 14:30:58;;;;;;;3.90;0.80;;;;;;;8.14;67.70;100827.97;5074409;28;20036;-70
2023/01/10 14:33:24;;;;;;;2.97;1.35;;;;;;;8.13;68.94;100814.84;5074254;28;20102;-70
2023/01/10 14:35:54;;;;;;;1.40;0.57;;;;;;;8.12;69.25;100814.00;5074353;28;20432;-71
2023/01/10 14:38:32;;;;;;;0.60;0.60;;;;;;;8.08;69.72;100812.59;5074057;28;20040;-70
2023/01/10 14:41:01;;;;;;;4.75;1.15;;;;;;;8.10;70.74;100812.50;5074212;28;20041;-71
2023/01/10 14:43:37;;;;;;;1.33;0.60;;;;;;;8.10;70.13;100809.84;5074109;28;20037;-70
2023/01/10 14:46:20;;;;;;;1.10;0.68;;;;;;;8.08;71.76;100812.59;5074330;28;20028;-72
2023/01/10 14:48:48;;;;;;;5.65;1.27;;;;;;;8.01;72.25;100808.84;5073898;28;20062;-66
2023/01/10 14:51:17;;;;;;;3.58;0.50;;;;;;;7.97;71.49;100809.31;5073854;28;20425;-66
2023/01/10 14:53:43;;;;;;;1.05;0.77;;;;;;;7.95;72.30;100806.78;5073601;28;20085;-74
2023/01/10 14:56:20;;;;;;;1.85;1.17;;;;;;;7.92;72.72;100811.53;5073967;28;20037;-74
2023/01/10 14:58:45;;;;;;;3.20;0.93;;;;;;;8.00;71.56;100798.41;5073733;28;20067;-74
2023/01/10 15:01:12;;;;;;;0.43;0.43;;;;;;;7.93;71.87;100802.59;5073859;28;20438;-74
2023/01/10 15:03:44;;;;;;;1.05;0.70;;;;;;;7.89;70.23;100802.91;5073891;28;20032;-75
2023/01/10 15:06:10;;;;;;;0.43;0.40;;;;;;;7.87;70.66;100793.38;5073975;28;20052;-74
2023/01/10 15:08:35;;;;;;;1.00;0.75;;;;;;;7.88;70.11;100795.06;5073481;28;20493;-74
2023/01/10 15:11:04;;;;;;;3.65;0.80;;;;;;;7.88;71.82;100795.91;5073543;28;20033;-74
2023/01/10 15:13:34;;;;;;;1.55;0.98;;;;;;;7.88;72.06;100782.63;5073674;28;20040;-75
2023/01/10 15:16:00;;;;;;;1.67;0.80;;;;;;;7.76;71.09;100783.81;5073627;28;20059;-74
2023/01/10 15:18:32;;;;;;;1.65;0.63;;;;;;;7.67;70.22;100787.28;5055320;28;20033;-73
2023/01/10 15:21:00;;;;;;;3.00;0.85;;;;;;;7.75;70.53;100790.06;5073561;28;20031;-74
2023/01/10 15:23:33;;;;;;;2.00;0.63;;;;;;;7.69;70.26;100782.66;5073440;28;20031;-74
2023/01/10 15:26:03;;;;;;;2.03;0.70;;;;;;;7.62;70.07;100790.34;5073466;28;20036;-73
2023/01/10 15:28:30;;;;;;;1.42;0.70;;;;;;;7.62;68.71;100794.81;5073094;28;20040;-74
2023/01/10 15:30:57;;;;;;;0.93;0.73;;;;;;;7.57;69.07;100795.25;5073304;28;20033;-72
2023/01/10 15:33:28;;;;;;;1.27;0.83;;;;;;;7.55;67.79;100788.41;5073072;28;20040;-71
2023/01/10 15:35:55;;;;;;;1.38;0.68;;;;;;;7.52;68.15;100789.53;5073307;28;20428;-71
2023/01/10 15:38:26;;;;;;;1.25;0.70;;;;;;;7.48;68.14;100782.00;5073198;28;20489;-71
2023/01/10 15:40:57;;;;;;;0.75;0.73;;;;;;;7.45;67.90;100774.34;5073373;28;20036;-71
2023/01/10 15:43:25;;;;;;;1.08;0.80;;;;;;;7.42;67.31;100771.94;5073160;28;20036;-71
2023/01/10 15:45:54;;;;;;;2.63;0.90;;;;;;;7.38;66.89;100762.63;5073112;28;20109;-70
2023/01/10 15:48:35;;;;;;;1.77;1.08;;;;;;;7.35;67.85;100761.06;5072625;28;20090;-71
2023/01/10 15:51:19;;;;;;;0.50;0.50;;;;;;;7.28;67.05;100755.50;5072826;28;20045;-71
2023/01/10 15:54:04;;;;;;;1.65;0.68;;;;;;;7.30;67.40;100752.69;5072729;28;20040;-71
2023/01/10 15:56:30;;;;;;;3.40;0.70;;;;;;;7.27;67.58;100753.00;5072848;28;20489;-71
2023/01/10 15:58:57;;;;;;;1.80;0.82;;;;;;;7.21;68.32;100753.53;5072484;28;20043;-71
2023/01/10 16:01:23;;;;;;;6.50;0.80;;;;;;;7.17;67.99;100749.47;5072854;28;20045;-70
2023/01/10 16:03:52;;;;;;;1.77;0.70;;;;;;;7.18;68.33;100753.84;5072564;28;20040;-71
2023/01/10 16:06:24;;;;;;;1.73;0.98;;;;;;;7.14;68.13;100758.56;5071730;28;20029;-71
2023/01/10 16:08:53;;;;;;;2.35;0.90;;;;;;;7.06;68.28;100751.31;5072347;28;20039;-71
2023/01/10 16:14:06;;;;;;;1.92;0.80;;;;;;;6.99;69.44;100736.09;5072284;28;20072;-70
2023/01/10 16:16:32;;;;;;;3.95;0.82;;;;;;;6.97;69.20;100730.09;5071843;28;20115;-70
2023/01/10 16:18:57;;;;;;;3.70;1.05;;;;;;;6.96;68.43;100731.06;5071996;28;20047;-71
2023/01/10 16:21:30;;;;;;;2.30;1.02;;;;;;;6.92;69.14;100733.19;5072222;28;20119;-70
2023/01/10 16:23:56;;;;;;;1.58;0.98;;;;;;;6.96;69.19;100733.72;5072217;28;20220;-70
2023/01/10 16:26:21;;;;;;;2.83;0.98;;;;;;;6.91;68.84;100723.56;5072238;28;20036;-72
2023/01/10 16:28:46;;;;;;;3.83;1.73;;;;;;;6.92;68.84;100721.75;5071846;28;20032;-72
2023/01/10 16:31:13;;;;;;;2.92;1.58;;;;;;;6.87;68.21;100711.56;5054171;28;20459;-72
2023/01/10 16:33:39;;;;;;;3.38;1.52;;;;;;;6.88;69.73;100723.81;5071842;28;20452;-72
2023/01/10 16:36:13;;;;;;;2.03;1.38;;;;;;;6.84;69.14;100705.69;5072049;28;20105;-72
2023/01/10 16:38:38;;;;;;;1.83;1.08;;;;;;;6.86;68.53;100712.53;5071854;28;20115;-72
2023/01/10 16:43:16;;;;;;;3.13;1.10;;;;;;;6.87;68.74;100706.25;5071976;28;20075;-72
2023/01/10 16:43:50;;;;;;;3.20;1.15;;;;;;;6.81;69.13;100698.88;5071671;28;20045;-72
2023/01/10 16:46:16;;;;;;;4.93;1.52;;;;;;;6.83;69.17;100709.31;5071948;28;20036;-72
2023/01/10 16:48:43;;;;;;;2.53;1.08;;;;;;;6.87;68.51;100713.38;5071580;28;20048;-66
2023/01/10 16:51:17;;;;;;;2.03;1.02;;;;;;;6.86;68.65;100712.53;5054464;28;20137;-66
2023/01/10 16:53:43;;;;;;;1.63;1.23;;;;;;;6.85;69.22;100704.75;5071813;28;20421;-67
2023/01/10 16:56:14;;;;;;;3.20;1.40;;;;;;;6.87;69.08;100710.72;5071839;28;20036;-67
2023/01/10 16:58:39;;;;;;;2.60;1.30;;;;;;;6.85;69.18;100704.75;5053493;28;20127;-67
2023/01/10 17:01:05;;;;;;;2.22;1.00;;;;;;;6.88;69.32;100704.44;5071820;28;20127;-67
2023/01/10 17:03:38;;;;;;;2.13;1.38;;;;;;;6.88;68.64;100696.50;5071689;28;20032;-66
2023/01/10 17:06:04;;;;;;;3.30;1.38;;;;;;;6.87;69.48;100695.66;5071914;28;20040;-68
2023/01/10 17:08:30;;;;;;;4.68;1.00;;;;;;;6.85;68.94;100686.19;5071446;28;20508;-68
2023/01/10 17:10:59;;;;;;;1.88;1.20;;;;;;;6.84;69.47;100687.97;5071475;28;20042;-67
2023/01/10 17:13:30;;;;;;;1.95;1.00;;;;;;;6.85;69.57;100691.50;5072068;28;20040;-66
2023/01/10 17:15:55;;;;;;;6.72;1.58;;;;;;;6.78;70.09;100694.69;5071776;28;20101;-67